首页
METAR-TAF:

METAR-TAF

机场 :

Bleibler Ranch Aerodrome

克林顿, 不列颠哥伦比亚, 加拿大

纬度: 51-15-59N, 经度: 121-41-05W, 海拔: 1126米

当前天气观测

该预报发布于52分钟前的20:00 UTC
风速12节,风向东南,在南转南东之间变化
温度 11°C
湿度 54%
气压 1007 hPa
能見度: 14.5公里
天空无云

METAR: CYIN 172000Z AUTO 13012KT 090V160 9SM CLR 11/02 A2974 RMK SLP083 DENSITY ALT 4200FT

时间: 12:52 (20:52 UTC)


TAF: 丢失

超过4000个机场的气象观测和天气预报(METAR&TAF报告)。

可查询的气象台以黄色和红色小点在地图上表示。

将鼠标移到小点上方,可查看气象台名称。

然后点击查看天气观测和预报。

如需切换地图:点击带黑十字的绿色按钮放大地图;点击带横线的绿色按钮缩小地图;或者点击绿色箭头查看邻近地区的地图。


METAR-TAF: